Latest Weather Observations for Tuggeranong

IDN60801

Issued at 11:05 pm EDT Thursday 23 October 2014 (issued every 30 minutes, with the page automatically refreshed every 10 minutes)

About weather observations | Map of weather stations | Latest weather observations for NSW | Other Formats
Station Details ID: 070339 Name: TUGGERANONG (ISABELLA PLAINS) AWS Lat: -35.42 Lon: 149.09 Height: 586.7 m
Data from the previous 72 hours. | See also: Recent months at Tuggeranong
Date/Time
EDT
Temp
°C
App
Temp
°C
Dew
Point
Rel
Hum
%
Delta-T
°C
Wind Press
QNH
hPa
Press
MSL
hPa
Rain
since 9 am
mm
Dir
 
Spd
km/h
Gust
km/h
Spd
kts
Gust
kts
23/11:00pm 14.1 14.5 11.4 84 1.5 W 0 0 0 0 1021.8 1021.0 1.6
23/10:30pm 15.7 14.5 11.5 76 2.3 SSW 9 13 5 7 1022.2 1021.5 1.6
23/10:00pm 17.3 16.2 11.8 70 3.1 E 9 15 5 8 1022.5 1021.8 1.6
23/09:30pm 17.1 16.1 12.2 73 2.8 ESE 9 15 5 8 1022.1 1021.4 1.6
23/09:00pm 15.9 16.0 12.6 81 1.9 NW 4 15 2 8 1021.5 1020.7 1.6
23/08:30pm 16.2 15.9 11.6 74 2.6 N 4 7 2 4 1020.6 1019.9 1.6
23/08:00pm 18.2 17.5 11.3 64 3.9 S 6 9 3 5 1020.0 1019.2 1.6
23/07:30pm 19.2 17.8 11.0 59 4.6 SE 9 19 5 10 1019.8 1019.0 1.6
23/07:00pm 18.1 19.2 14.6 80 2.1 SSE 2 7 1 4 1019.0 1018.2 1.6
23/06:30pm 17.3 17.4 13.8 80 2.0 NNW 6 9 3 5 1018.6 1017.8 1.6
23/06:00pm 18.5 15.4 11.6 64 3.9 WSW 19 30 10 16 1018.6 1017.8 1.2
23/05:30pm 20.9 16.9 10.4 51 5.9 NE 22 32 12 17 1017.5 1016.6 0.6
23/05:00pm 20.1 18.5 11.6 58 4.8 NW 11 17 6 9 1018.6 1017.8 0.6
23/04:30pm 19.4 17.0 11.4 60 4.5 E 15 28 8 15 1018.0 1017.2 0.6
23/04:00pm 20.6 16.0 9.5 49 6.1 ESE 24 30 13 16 1018.4 1017.6 0.4
23/03:30pm 23.0 20.2 10.1 44 7.2 SSE 15 20 8 11 1018.4 1017.6 0.4
23/03:00pm 21.2 21.7 12.9 59 4.8 N 2 7 1 4 1018.4 1017.6 0.4
23/02:30pm 19.9 16.5 11.1 57 5.0 SSW 20 30 11 16 1018.0 1017.2 0.4
23/02:00pm 22.8 19.4 6.1 34 8.7 ESE 13 24 7 13 1018.6 1017.8 0.0
23/01:30pm 22.8 19.3 10.9 47 6.8 S 20 32 11 17 1019.4 1018.6 0.0
23/01:00pm 24.8 23.5 9.9 39 8.4 NNW 7 13 4 7 1019.0 1018.2 0.0
23/12:30pm 25.4 23.2 9.3 36 9.0 N 11 17 6 9 1019.3 1018.5 0.0
23/12:00pm 25.9 23.8 9.7 36 9.2 NNW 11 17 6 9 1019.5 1018.7 0.0
23/11:30am 24.8 22.7 11.0 42 7.9 NNW 13 20 7 11 1020.1 1019.3 0.0
23/11:00am 24.0 22.7 12.6 49 6.7 NNW 11 17 6 9 1020.2 1019.4 0.0
23/10:30am 23.3 21.6 12.6 51 6.3 NW 13 20 7 11 1020.3 1019.5 0.0
23/10:00am 22.4 21.7 12.1 52 6.0 WNW 7 11 4 6 1020.2 1019.4 0.0
23/09:30am 20.6 21.2 11.8 57 5.0 CALM 0 6 0 3 1020.1 1019.3 0.0
23/09:00am 18.6 18.2 11.2 62 4.1 SE 4 7 2 4 1020.3 1019.5 0.0
23/08:30am 15.8 15.3 10.6 71 2.8 SSW 4 7 2 4 1020.6 1019.9 0.0
23/08:00am 13.7 13.7 11.2 85 1.4 NW 2 7 1 4 1020.6 1019.9 0.0
23/07:30am 11.5 11.9 11.3 99 0.1 CALM 0 0 0 0 1020.5 1019.7 0.0
23/07:00am 11.0 11.3 10.8 99 0.1 CALM 0 0 0 0 1020.4 1019.6 0.0
23/06:30am 10.5 10.6 10.0 97 0.3 CALM 0 0 0 0 1020.2 1019.4 0.0
23/06:00am 10.7 10.9 10.4 98 0.2 SSW 0 0 0 0 1019.9 1019.1 0.0
23/05:30am 10.6 10.7 10.0 96 0.3 CALM 0 0 0 0 1019.7 1018.9 0.0
23/05:00am 10.7 10.7 9.9 95 0.4 CALM 0 0 0 0 1019.6 1018.8 0.0
23/04:30am 11.1 11.3 10.6 97 0.3 CALM 0 0 0 0 1019.7 1018.9 0.0
23/04:00am 10.7 10.8 10.2 97 0.3 CALM 0 0 0 0 1019.6 1018.8 0.0
23/03:30am 10.5 10.6 10.0 97 0.3 CALM 0 0 0 0 1019.4 1018.6 0.0
23/03:00am 10.9 11.0 10.3 96 0.3 CALM 0 0 0 0 1019.5 1018.7 0.0
23/02:30am 10.5 10.5 9.9 96 0.3 CALM 0 0 0 0 1019.8 1019.0 0.0
23/02:00am 10.8 11.0 10.5 98 0.2 CALM 0 2 0 1 1020.0 1019.2 0.0
23/01:30am 10.4 9.6 9.6 95 0.4 WSW 4 7 2 4 1020.0 1019.2 0.0
23/01:00am 11.3 11.6 10.8 97 0.3 CALM 0 0 0 0 1020.3 1019.5 0.0
23/12:30am 11.2 11.2 9.9 92 0.7 CALM 0 0 0 0 1020.4 1019.6 0.0
23/12:00am 11.8 11.9 10.2 90 0.8 E 0 0 0 0 1020.4 1019.6 0.0
 
Date/Time
EDT
Temp
°C
App
Temp
°C
Dew
Point
Rel
Hum
%
Delta-T
°C
Wind Press
QNH
hPa
Press
MSL
hPa
Rain
since 9 am
mm
Dir
 
Spd
km/h
Gust
km/h
Spd
kts
Gust
kts
22/11:30pm 12.3 12.5 10.5 89 1.0 CALM 0 0 0 0 1020.5 1019.7 0.0
22/11:00pm 13.1 13.3 10.6 85 1.3 CALM 0 0 0 0 1020.5 1019.7 0.0
22/10:30pm 14.2 13.3 10.8 80 1.8 ESE 6 7 3 4 1020.5 1019.7 0.0
22/10:00pm 14.7 15.1 11.1 79 2.0 CALM 0 0 0 0 1020.4 1019.6 0.0
22/09:30pm 15.9 15.2 11.3 74 2.5 E 6 7 3 4 1020.2 1019.4 0.0
22/09:00pm 17.5 16.8 12.0 70 3.1 E 7 9 4 5 1019.8 1019.0 0.0
22/08:30pm 19.0 18.7 11.6 62 4.2 ENE 4 7 2 4 1019.5 1018.7 0.0
22/08:00pm 20.0 19.7 11.5 58 4.8 NE 4 9 2 5 1019.4 1018.6 0.0
22/07:30pm 21.5 20.6 11.5 53 5.7 N 7 11 4 6 1019.3 1018.5 0.0
22/07:00pm 22.7 21.1 11.7 49 6.3 N 11 17 6 9 1019.0 1018.2 0.0
22/06:30pm 23.4 21.3 12.4 50 6.4 N 15 22 8 12 1019.0 1018.2 0.0
22/06:00pm 23.7 21.7 12.7 50 6.5 N 15 22 8 12 1019.0 1018.2 0.0
22/05:30pm 23.8 22.2 12.8 50 6.5 NNW 13 20 7 11 1019.1 1018.4 0.0
22/05:00pm 24.4 23.1 13.6 51 6.5 N 13 20 7 11 1019.3 1018.5 0.0
22/04:30pm 24.7 23.4 13.6 50 6.7 N 13 20 7 11 1019.1 1018.4 0.0
22/04:00pm 24.7 23.3 13.3 49 6.8 N 13 22 7 12 1019.5 1018.7 0.0
22/03:30pm 24.7 23.3 13.3 49 6.8 WNW 13 17 7 9 1019.8 1019.0 0.0
22/03:00pm 23.7 22.0 12.4 49 6.6 NW 13 20 7 11 1020.2 1019.4 0.0
22/02:30pm 23.3 22.0 12.6 51 6.3 NW 11 22 6 12 1020.7 1020.0 0.0
22/02:00pm 22.4 20.3 12.4 53 5.8 NW 15 24 8 13 1021.3 1020.5 0.0
22/01:30pm 22.3 21.3 12.3 53 5.8 NNW 9 19 5 10 1021.9 1021.1 0.0
22/01:00pm 21.0 19.2 12.2 57 5.1 N 13 19 7 10 1022.5 1021.8 0.0
22/12:30pm 19.3 17.6 10.0 55 5.1 NW 9 15 5 8 1023.2 1022.4 0.0
22/12:00pm 18.0 16.2 9.6 58 4.5 N 9 19 5 10 1023.9 1023.2 0.0
22/11:30am 16.8 14.9 9.0 60 4.2 N 9 17 5 9 1024.6 1023.9 0.0
22/11:00am 15.2 13.6 8.7 65 3.4 NNW 7 15 4 8 1025.3 1024.6 0.0
22/10:30am 13.9 12.2 7.4 65 3.3 N 6 13 3 7 1025.9 1025.2 0.0
22/10:00am 11.9 10.1 7.2 73 2.3 WSW 6 7 3 4 1026.2 1025.5 0.0
22/09:30am 11.8 10.5 7.7 76 2.1 W 4 9 2 5 1026.4 1025.7 0.0
22/09:00am 10.9 9.4 7.0 77 1.9 NNW 4 9 2 5 1026.6 1025.9 0.0
22/08:30am 10.5 8.6 6.8 78 1.8 SW 6 9 3 5 1026.4 1025.7 0.0
22/08:00am 10.2 8.4 7.1 81 1.5 SW 6 9 3 5 1026.6 1025.9 0.0
22/07:30am 10.0 8.2 7.1 82 1.4 WSW 6 9 3 5 1026.4 1025.7 0.0
22/07:00am 9.7 9.0 6.8 82 1.4 CALM 0 4 0 2 1026.4 1025.7 0.0
22/06:30am 9.8 7.9 6.7 81 1.5 NNE 6 11 3 6 1026.6 1025.9 0.0
22/06:00am 10.0 8.0 6.9 81 1.5 ENE 7 11 4 6 1026.6 1025.9 0.0
22/05:30am 10.0 7.9 6.5 79 1.7 NE 7 9 4 5 1026.4 1025.7 0.0
22/05:00am 10.0 7.9 6.5 79 1.7 NE 7 13 4 7 1026.4 1025.7 0.0
22/04:30am 10.1 7.9 6.4 78 1.8 E 7 11 4 6 1026.7 1026.0 0.0
22/04:00am 10.1 7.6 6.4 78 1.8 ENE 9 13 5 7 1026.9 1026.2 0.0
22/03:30am 10.3 8.2 6.6 78 1.8 ENE 7 9 4 5 1027.2 1026.5 0.0
22/03:00am 10.4 8.3 6.7 78 1.8 ENE 7 13 4 7 1027.5 1026.8 0.0
22/02:30am 10.6 8.1 6.7 77 1.9 NE 9 13 5 7 1028.1 1027.5 0.0
22/02:00am 11.1 8.6 6.6 74 2.2 NE 9 15 5 8 1028.5 1027.8 0.0
22/01:30am 11.3 9.2 6.8 74 2.2 ENE 7 11 4 6 1029.1 1028.4 0.0
22/01:00am 11.3 9.5 7.0 75 2.1 NE 6 9 3 5 1029.4 1028.7 0.0
22/12:30am 11.4 9.4 7.1 75 2.1 NE 7 17 4 9 1029.8 1029.2 0.0
22/12:00am 11.5 9.2 7.4 76 2.0 ENE 9 17 5 9 1030.0 1029.4 0.0
 
Date/Time
EDT
Temp
°C
App
Temp
°C
Dew
Point
Rel
Hum
%
Delta-T
°C
Wind Press
QNH
hPa
Press
MSL
hPa
Rain
since 9 am
mm
Dir
 
Spd
km/h
Gust
km/h
Spd
kts
Gust
kts
21/11:30pm 11.7 9.8 7.6 76 2.1 ENE 7 15 4 8 1030.2 1029.5 0.0
21/11:00pm 11.9 9.3 7.6 75 2.1 ENE 11 17 6 9 1030.3 1029.6 0.0
21/10:30pm 12.0 9.3 7.5 74 2.3 ENE 11 17 6 9 1030.4 1029.7 0.0
21/10:00pm 12.2 9.2 7.7 74 2.2 ENE 13 19 7 10 1030.5 1029.8 0.0
21/09:30pm 12.5 10.3 7.8 73 2.4 NE 9 17 5 9 1030.3 1029.6 0.0
21/09:00pm 12.8 9.8 7.7 71 2.6 ENE 13 24 7 13 1029.9 1029.3 0.0
21/08:30pm 13.1 8.9 7.5 69 2.8 ENE 19 32 10 17 1029.7 1029.1 0.0
21/08:00pm 13.6 9.7 7.2 65 3.2 NE 17 24 9 13 1029.2 1028.5 0.0
21/07:30pm 14.1 10.6 7.2 63 3.5 NE 15 22 8 12 1029.0 1028.3 0.0
21/07:00pm 14.7 11.6 7.3 61 3.7 NE 13 20 7 11 1028.5 1027.8 0.0
21/06:30pm 15.4 12.3 7.4 59 4.1 NE 13 19 7 10 1028.2 1027.6 0.0
21/06:00pm 15.8 12.6 7.0 56 4.4 NE 13 17 7 9 1028.1 1027.5 0.0
21/05:30pm 16.9 14.8 8.3 57 4.5 NNE 9 17 5 9 1028.1 1027.5 0.0
21/05:00pm 16.6 13.6 7.8 56 4.5 NE 13 19 7 10 1028.4 1027.7 0.0
21/04:30pm 16.0 13.7 7.5 57 4.4 ENE 9 17 5 9 1028.6 1027.9 0.0
21/04:00pm 16.3 14.1 7.8 57 4.4 ENE 9 19 5 10 1028.7 1028.0 0.0
21/03:30pm 16.0 13.7 7.5 57 4.4 NE 9 15 5 8 1029.1 1028.4 0.0
21/03:00pm 15.4 12.7 7.2 58 4.1 ENE 11 17 6 9 1029.5 1028.9 0.0
21/02:30pm 15.0 11.5 7.1 59 4.0 NE 15 22 8 12 1030.0 1029.4 0.0
21/02:00pm 15.1 12.8 7.6 61 3.8 ENE 9 19 5 10 1030.6 1029.9 0.0
21/01:30pm 14.8 12.3 6.6 58 4.1 NE 9 15 5 8 1030.9 1030.2 0.0
21/01:00pm 14.6 12.1 6.7 59 3.9 NE 9 15 5 8 1031.3 1030.7 0.0
21/12:30pm 14.0 11.1 6.6 61 3.7 ENE 11 15 6 8 1031.6 1031.0 0.0
21/12:00pm 13.8 10.6 6.7 62 3.5 E 13 19 7 10 1032.0 1031.3 0.0
21/11:30am 14.0 10.5 7.1 63 3.5 NNE 15 20 8 11 1032.3 1031.6 0.0
21/11:00am 13.3 9.7 6.6 64 3.3 NE 15 20 8 11 1032.5 1031.9 0.0
21/10:30am 12.8 9.9 6.6 66 3.1 NE 11 19 6 10 1032.7 1032.1 0.0
21/10:00am 12.1 9.1 6.2 67 2.9 E 11 17 6 9 1032.7 1032.1 0.0
21/09:30am 11.7 8.7 6.2 69 2.7 ENE 11 15 6 8 1032.7 1032.1 0.0
21/09:00am 11.3 8.3 5.8 69 2.6 E 11 19 6 10 1032.5 1031.9 0.0
21/08:30am 11.1 8.9 6.0 71 2.5 E 7 11 4 6 1032.3 1031.6 0.0
21/08:00am 10.7 9.0 6.1 73 2.2 E 4 7 2 4 1032.1 1031.4 0.0
21/07:30am 10.3 8.3 6.1 75 2.0 E 6 9 3 5 1031.7 1031.1 0.0
21/07:00am 10.0 8.3 5.8 75 2.0 ENE 4 9 2 5 1031.6 1031.0 0.0
21/06:30am 10.1 7.9 6.1 76 1.9 ENE 7 13 4 7 1031.2 1030.6 0.0
21/06:00am 10.0 8.8 6.3 78 1.8 SE 2 6 1 3 1030.9 1030.2 0.0
21/05:30am 10.0 7.8 6.3 78 1.8 S 7 11 4 6 1030.8 1030.1 0.0
21/05:00am 10.0 8.0 6.2 77 1.8 ESE 6 7 3 4 1031.0 1030.4 0.0
21/04:30am 10.0 8.8 6.3 78 1.8 ENE 2 7 1 4 1031.1 1030.5 0.0
21/04:00am 10.0 8.0 6.2 77 1.8 SE 6 7 3 4 1031.1 1030.5 0.0
21/03:30am 10.0 7.8 6.2 77 1.8 ESE 7 9 4 5 1031.2 1030.6 0.0
21/03:00am 10.0 7.8 6.3 78 1.8 ESE 7 11 4 6 1031.4 1030.8 0.0
21/02:30am 10.0 7.8 6.3 78 1.8 ESE 7 13 4 7 1031.6 1031.0 0.0
21/02:00am 10.0 7.4 6.2 77 1.8 SE 9 11 5 6 1031.7 1031.1 0.0
21/01:30am 10.1 7.9 6.3 77 1.8 SE 7 11 4 6 1031.8 1031.2 0.0
21/01:00am 10.1 8.1 6.3 77 1.8 SSE 6 9 3 5 1032.0 1031.3 0.0
21/12:30am 10.1 9.3 6.4 78 1.8 CALM 0 0 0 0 1032.2 1031.5 0.0
21/12:00am 10.2 8.2 6.2 76 1.9 N 6 11 3 6 1032.3 1031.6 0.0
 
Date/Time
EDT
Temp
°C
App
Temp
°C
Dew
Point
Rel
Hum
%
Delta-T
°C
Wind Press
QNH
hPa
Press
MSL
hPa
Rain
since 9 am
mm
Dir
 
Spd
km/h
Gust
km/h
Spd
kts
Gust
kts
20/11:30pm 10.3 8.6 6.1 75 2.0 ESE 4 7 2 4 1032.3 1031.6 0.0

Other Formats:

Comma delimited format used in spreadsheet applications
http://www.bom.gov.au/fwo/IDN60801/IDN60801.94925.axf

JavaScript Object Notation format (JSON) in row-major order
http://www.bom.gov.au/fwo/IDN60801/IDN60801.94925.json